createdAt,value
2018-07-12T00:01:21.116Z,18.99
2018-07-12T00:03:48.474Z,18.99
2018-07-12T00:06:15.908Z,19.00
2018-07-12T00:08:43.255Z,18.92
2018-07-12T00:11:10.691Z,18.83
2018-07-12T00:13:38.050Z,18.88
2018-07-12T00:16:05.398Z,18.84
2018-07-12T00:18:32.879Z,18.82
2018-07-12T00:21:00.293Z,18.87
2018-07-12T00:23:27.647Z,18.84
2018-07-12T00:25:55.060Z,18.89
2018-07-12T00:28:22.407Z,18.91
2018-07-12T00:30:49.883Z,18.93
2018-07-12T00:33:17.244Z,18.91
2018-07-12T00:35:44.654Z,18.84
2018-07-12T00:38:12.031Z,18.83
2018-07-12T00:40:39.399Z,18.73
2018-07-12T00:43:06.788Z,18.75
2018-07-12T00:45:34.160Z,18.67
2018-07-12T00:48:01.537Z,18.63
2018-07-12T00:50:28.980Z,18.55
2018-07-12T00:52:56.356Z,18.43
2018-07-12T00:55:23.736Z,18.37
2018-07-12T00:57:51.174Z,18.32
2018-07-12T01:00:18.539Z,18.28
2018-07-12T01:02:45.940Z,18.21
2018-07-12T01:05:13.442Z,18.21
2018-07-12T01:07:40.811Z,18.25
2018-07-12T01:10:08.164Z,18.22
2018-07-12T01:12:35.547Z,18.20
2018-07-12T01:15:02.994Z,18.16
2018-07-12T01:17:30.339Z,18.10
2018-07-12T01:19:57.686Z,18.06
2018-07-12T01:22:25.043Z,18.02
2018-07-12T01:24:52.426Z,17.97
2018-07-12T01:27:19.797Z,17.98
2018-07-12T01:29:47.228Z,17.96
2018-07-12T01:32:14.578Z,18.07
2018-07-12T01:34:41.942Z,18.04
2018-07-12T01:37:09.318Z,18.09
2018-07-12T01:39:36.732Z,18.00
2018-07-12T01:42:04.079Z,18.02
2018-07-12T01:44:31.516Z,18.01
2018-07-12T01:46:58.881Z,18.05
2018-07-12T01:49:26.255Z,18.06
2018-07-12T01:51:53.669Z,18.05
2018-07-12T01:54:21.069Z,18.03
2018-07-12T01:56:48.491Z,18.04
2018-07-12T01:59:15.879Z,18.05
2018-07-12T02:01:43.296Z,18.06
2018-07-12T02:04:10.674Z,18.05
2018-07-12T02:06:38.022Z,18.01
2018-07-12T02:09:06.169Z,18.02
2018-07-12T02:11:33.512Z,18.03
2018-07-12T02:14:00.887Z,18.00
2018-07-12T02:16:28.267Z,17.98
2018-07-12T02:18:56.208Z,17.97
2018-07-12T02:21:23.565Z,17.89
2018-07-12T02:23:50.966Z,17.75
2018-07-12T02:26:18.412Z,17.68
2018-07-12T02:28:45.931Z,17.65
2018-07-12T02:31:13.298Z,17.69
2018-07-12T02:33:40.686Z,17.63
2018-07-12T02:36:08.054Z,17.51
2018-07-12T02:38:35.455Z,17.57
2018-07-12T02:41:02.861Z,17.52
2018-07-12T02:43:30.214Z,17.47
2018-07-12T02:45:57.592Z,17.52
2018-07-12T02:48:24.946Z,17.51
2018-07-12T02:50:52.359Z,17.49
2018-07-12T02:53:19.716Z,17.52
2018-07-12T02:55:47.123Z,17.47
2018-07-12T02:58:14.710Z,17.48
2018-07-12T03:00:42.061Z,17.49
2018-07-12T03:03:09.473Z,17.44
2018-07-12T03:05:37.803Z,17.42
2018-07-12T03:08:05.170Z,17.39
2018-07-12T03:10:32.543Z,17.34
2018-07-12T03:12:59.893Z,17.24
2018-07-12T03:15:27.291Z,17.26
2018-07-12T03:17:54.731Z,17.15
2018-07-12T03:20:22.097Z,17.26
2018-07-12T03:22:49.487Z,17.31
2018-07-12T03:25:16.870Z,17.30
2018-07-12T03:27:44.320Z,17.34
2018-07-12T03:30:11.744Z,17.36
2018-07-12T03:32:39.133Z,17.39
2018-07-12T03:35:06.639Z,17.39
2018-07-12T03:37:34.004Z,17.44
2018-07-12T03:40:01.363Z,17.40
2018-07-12T03:42:28.817Z,17.45
2018-07-12T03:44:56.203Z,17.50
2018-07-12T03:47:23.582Z,17.43
2018-07-12T03:49:50.973Z,17.35
2018-07-12T03:52:18.346Z,17.28
2018-07-12T03:54:45.720Z,17.20
2018-07-12T03:57:13.149Z,17.20
2018-07-12T03:59:40.653Z,17.20
2018-07-12T04:02:08.140Z,17.16
2018-07-12T04:04:35.526Z,17.14
2018-07-12T04:07:02.955Z,17.18
2018-07-12T04:09:30.351Z,17.19
2018-07-12T04:11:57.720Z,17.18
2018-07-12T04:14:25.310Z,17.24
2018-07-12T04:16:52.671Z,17.28
2018-07-12T04:19:20.092Z,17.32
2018-07-12T04:21:47.686Z,17.34
2018-07-12T04:24:15.104Z,17.34
2018-07-12T04:26:43.199Z,17.36
2018-07-12T04:29:10.637Z,17.41
2018-07-12T04:31:38.091Z,17.40
2018-07-12T04:34:05.494Z,17.51
2018-07-12T04:36:32.951Z,17.52
2018-07-12T04:39:00.310Z,17.62
2018-07-12T04:41:27.743Z,17.68
2018-07-12T04:43:55.121Z,17.75
2018-07-12T04:46:22.506Z,17.77
2018-07-12T04:48:49.946Z,17.88
2018-07-12T04:51:17.375Z,17.91
2018-07-12T04:53:45.047Z,18.00
2018-07-12T04:56:12.535Z,18.10
2018-07-12T04:58:39.911Z,18.21
2018-07-12T05:01:07.371Z,18.28
2018-07-12T05:03:34.751Z,18.37
2018-07-12T05:06:02.126Z,18.44
2018-07-12T05:08:29.620Z,18.60
2018-07-12T05:10:57.001Z,18.65
2018-07-12T05:13:24.370Z,18.71
2018-07-12T05:15:51.797Z,18.85
2018-07-12T05:18:19.159Z,18.92
2018-07-12T05:20:46.543Z,19.03
2018-07-12T05:23:14.226Z,18.87
2018-07-12T05:25:41.784Z,19.05
2018-07-12T05:28:09.490Z,19.02
2018-07-12T05:30:36.917Z,19.17
2018-07-12T05:33:05.288Z,19.25
2018-07-12T05:35:33.940Z,19.28
2018-07-12T05:38:02.701Z,19.47
2018-07-12T05:40:31.444Z,19.62
2018-07-12T05:43:00.096Z,19.67
2018-07-12T05:45:28.895Z,19.60
2018-07-12T05:47:58.244Z,19.60
2018-07-12T05:50:26.886Z,19.59
2018-07-12T05:52:55.623Z,19.58
2018-07-12T05:55:24.367Z,19.64
2018-07-12T05:57:53.130Z,19.67
2018-07-12T06:00:21.926Z,19.83
2018-07-12T06:02:50.593Z,19.98
2018-07-12T06:05:19.284Z,20.12
2018-07-12T06:07:48.066Z,20.21
2018-07-12T06:10:16.817Z,20.25
2018-07-12T06:12:45.887Z,20.29
2018-07-12T06:15:14.556Z,20.38
2018-07-12T06:17:43.231Z,20.22
2018-07-12T06:20:11.936Z,20.40
2018-07-12T06:22:40.699Z,20.44
2018-07-12T06:25:09.407Z,20.54
2018-07-12T06:27:38.104Z,20.46
2018-07-12T06:30:07.294Z,20.54
2018-07-12T06:32:35.987Z,20.69
2018-07-12T06:35:04.667Z,20.82
2018-07-12T06:37:33.388Z,20.85
2018-07-12T06:40:02.155Z,20.95
2018-07-12T06:42:31.292Z,21.01
2018-07-12T06:45:00.065Z,21.07
2018-07-12T06:47:28.767Z,21.14
2018-07-12T06:49:57.476Z,21.23
2018-07-12T06:52:26.273Z,21.26
2018-07-12T06:54:54.933Z,21.32
2018-07-12T06:57:23.631Z,21.47
2018-07-12T06:59:52.307Z,21.63
2018-07-12T07:02:20.981Z,21.67
2018-07-12T07:04:49.700Z,21.68
2018-07-12T07:07:18.411Z,21.77
2018-07-12T07:09:47.101Z,21.82
2018-07-12T07:12:16.099Z,21.84
2018-07-12T07:14:44.798Z,21.82
2018-07-12T07:17:13.680Z,21.88
2018-07-12T07:19:42.451Z,22.04
2018-07-12T07:22:11.156Z,22.12
2018-07-12T07:24:39.879Z,22.27
2018-07-12T07:27:08.691Z,22.43
2018-07-12T07:29:37.394Z,22.56
2018-07-12T07:32:06.168Z,22.66
2018-07-12T07:34:34.915Z,22.66
2018-07-12T07:37:03.705Z,22.78
2018-07-12T07:39:32.397Z,22.79
2018-07-12T07:42:01.129Z,22.84
2018-07-12T07:44:29.815Z,22.98
2018-07-12T07:46:58.504Z,23.07
2018-07-12T07:49:27.274Z,23.08
2018-07-12T07:51:56.064Z,23.15
2018-07-12T07:54:24.748Z,23.13
2018-07-12T07:56:53.455Z,23.26
2018-07-12T07:59:22.259Z,23.46
2018-07-12T08:01:50.928Z,23.62
2018-07-12T08:04:19.574Z,23.72
2018-07-12T08:06:48.285Z,23.64
2018-07-12T08:09:17.396Z,23.67
2018-07-12T08:11:46.080Z,23.61
2018-07-12T08:14:14.780Z,23.85
2018-07-12T08:16:43.536Z,23.98
2018-07-12T08:19:12.246Z,24.22
2018-07-12T08:21:41.338Z,24.27
2018-07-12T08:24:18.640Z,24.31
2018-07-12T08:26:47.358Z,24.46
2018-07-12T08:29:16.023Z,24.55
2018-07-12T08:31:44.734Z,24.61
2018-07-12T08:34:13.425Z,24.71
2018-07-12T08:36:42.145Z,24.68
2018-07-12T08:39:10.902Z,24.70
2018-07-12T08:41:39.582Z,24.81
2018-07-12T08:44:08.583Z,24.80
2018-07-12T08:46:41.117Z,24.93
2018-07-12T08:49:10.848Z,25.05
2018-07-12T08:51:39.678Z,25.21
2018-07-12T08:54:13.178Z,25.40
2018-07-12T08:56:42.396Z,25.56
2018-07-12T08:59:11.207Z,25.66
2018-07-12T09:01:39.978Z,25.84
2018-07-12T09:04:10.681Z,25.94
2018-07-12T09:06:39.347Z,26.02
2018-07-12T09:09:08.521Z,26.02
2018-07-12T09:11:42.010Z,25.91
2018-07-12T09:14:10.798Z,25.80
2018-07-12T09:16:39.556Z,25.45
2018-07-12T09:19:12.355Z,25.53
2018-07-12T09:21:41.216Z,25.83
2018-07-12T09:24:09.974Z,25.99
2018-07-12T09:26:38.663Z,26.19
2018-07-12T09:29:07.719Z,26.02
2018-07-12T09:31:36.544Z,26.05
2018-07-12T09:34:05.547Z,25.90
2018-07-12T09:36:34.438Z,26.08
2018-07-12T09:39:03.231Z,26.07
2018-07-12T09:41:31.962Z,26.13
2018-07-12T09:44:00.635Z,26.19
2018-07-12T09:46:29.375Z,26.21
2018-07-12T09:48:58.159Z,26.26
2018-07-12T09:51:26.859Z,26.15
2018-07-12T09:53:55.542Z,26.39
2018-07-12T09:56:34.314Z,26.52
2018-07-12T09:59:02.884Z,26.69
2018-07-12T10:01:36.636Z,26.92
2018-07-12T10:04:05.713Z,27.16
2018-07-12T10:07:12.492Z,27.26
2018-07-12T10:10:04.855Z,27.45
2018-07-12T10:12:43.104Z,27.52
2018-07-12T10:15:26.234Z,27.46
2018-07-12T10:17:59.971Z,27.64
2018-07-12T10:20:28.681Z,27.66
2018-07-12T10:22:57.379Z,27.76
2018-07-12T10:25:26.060Z,27.83
2018-07-12T10:27:54.745Z,27.99
2018-07-12T10:30:23.497Z,28.03
2018-07-12T10:32:52.178Z,28.04
2018-07-12T10:35:21.811Z,28.13
2018-07-12T10:37:50.562Z,28.36
2018-07-12T10:40:19.265Z,28.48
2018-07-12T10:42:48.605Z,28.52
2018-07-12T10:45:17.337Z,28.25
2018-07-12T10:47:46.044Z,28.31
2018-07-12T10:50:14.774Z,28.11
2018-07-12T10:52:43.439Z,28.35
2018-07-12T10:55:12.111Z,28.47
2018-07-12T10:57:40.863Z,28.59
2018-07-12T11:00:11.905Z,28.50
2018-07-12T11:02:43.243Z,28.57
2018-07-12T11:05:13.161Z,29.10
2018-07-12T11:10:22.065Z,30.14
2018-07-12T11:13:01.763Z,30.37
2018-07-12T11:15:31.730Z,30.76
2018-07-12T11:18:04.676Z,31.41
2018-07-12T11:20:34.895Z,31.61
2018-07-12T11:23:03.654Z,31.94
2018-07-12T11:25:32.452Z,32.31
2018-07-12T11:28:01.655Z,32.64
2018-07-12T11:30:30.388Z,32.05
2018-07-12T11:33:00.833Z,32.12
2018-07-12T11:35:30.494Z,32.57
2018-07-12T11:37:59.149Z,32.58
2018-07-12T11:40:27.832Z,32.68
2018-07-12T11:42:56.500Z,32.54
2018-07-12T11:45:25.216Z,32.50
2018-07-12T11:47:53.927Z,32.45
2018-07-12T11:50:22.655Z,32.82
2018-07-12T11:52:51.356Z,33.24
2018-07-12T11:55:20.114Z,33.18
2018-07-12T11:57:49.847Z,33.36
2018-07-12T12:00:18.557Z,33.15
2018-07-12T12:02:47.347Z,33.11
2018-07-12T12:05:16.022Z,33.50
2018-07-12T12:07:44.702Z,32.28
2018-07-12T12:10:13.420Z,32.59
2018-07-12T12:12:42.124Z,33.21
2018-07-12T12:15:10.850Z,33.37
2018-07-12T12:17:40.235Z,32.45
2018-07-12T12:20:09.171Z,32.92
2018-07-12T12:22:37.907Z,32.42
2018-07-12T12:25:06.613Z,32.37
2018-07-12T12:27:35.316Z,32.74
2018-07-12T12:30:05.467Z,33.31
2018-07-12T12:32:34.200Z,33.05
2018-07-12T12:35:04.175Z,32.79
2018-07-12T12:37:32.850Z,32.66
2018-07-12T12:40:01.537Z,33.10
2018-07-12T12:42:30.213Z,33.09
2018-07-12T12:44:59.611Z,32.93
2018-07-12T12:47:28.395Z,32.97
2018-07-12T12:49:57.134Z,33.68
2018-07-12T12:52:25.808Z,34.11
2018-07-12T12:54:54.537Z,34.28
2018-07-12T12:57:23.220Z,34.41
2018-07-12T12:59:51.968Z,34.32
2018-07-12T13:02:20.799Z,34.46
2018-07-12T13:04:49.488Z,34.70
2018-07-12T13:07:18.182Z,34.83
2018-07-12T13:09:46.824Z,34.77
2018-07-12T13:12:15.537Z,34.39
2018-07-12T13:14:44.498Z,34.91
2018-07-12T13:17:13.215Z,35.11
2018-07-12T13:19:41.936Z,34.91
2018-07-12T13:22:10.660Z,35.40
2018-07-12T13:24:39.379Z,35.77
2018-07-12T13:27:08.067Z,35.94
2018-07-12T13:29:36.695Z,35.37
2018-07-12T13:32:05.387Z,34.92
2018-07-12T13:34:34.125Z,34.26
2018-07-12T13:37:02.897Z,33.64
2018-07-12T13:39:31.639Z,32.37
2018-07-12T13:42:00.462Z,31.40
2018-07-12T13:44:29.147Z,30.89
2018-07-12T13:46:57.850Z,30.47
2018-07-12T13:49:26.552Z,30.09
2018-07-12T13:51:55.404Z,30.06
2018-07-12T13:54:24.063Z,30.40
2018-07-12T13:56:53.739Z,31.12
2018-07-12T13:59:22.450Z,31.84
2018-07-12T14:01:51.211Z,32.28
2018-07-12T14:04:19.891Z,32.65
2018-07-12T14:06:48.593Z,32.92
2018-07-12T14:09:17.502Z,32.99
2018-07-12T14:11:46.271Z,33.24
2018-07-12T14:14:15.029Z,33.38
2018-07-12T14:16:43.723Z,33.46
2018-07-12T14:19:13.352Z,33.49
2018-07-12T14:21:42.136Z,33.71
2018-07-12T14:25:13.859Z,33.64
2018-07-12T14:27:42.501Z,33.82
2018-07-12T14:30:11.238Z,34.35
2018-07-12T14:32:39.956Z,34.34
2018-07-12T14:35:08.800Z,34.20
2018-07-12T14:37:37.515Z,34.15
2018-07-12T14:40:06.889Z,34.03
2018-07-12T14:42:35.598Z,34.65
2018-07-12T14:45:04.437Z,34.80
2018-07-12T14:47:33.182Z,34.97
2018-07-12T14:50:02.003Z,35.01
2018-07-12T14:52:30.672Z,35.08
2018-07-12T14:54:59.377Z,35.35
2018-07-12T14:57:28.098Z,35.24
2018-07-12T14:59:56.818Z,35.34
2018-07-12T15:02:26.080Z,34.94
2018-07-12T15:04:54.767Z,34.61
2018-07-12T15:07:23.452Z,34.15
2018-07-12T15:09:52.244Z,33.57
2018-07-12T15:12:20.964Z,33.12
2018-07-12T15:14:49.608Z,32.51
2018-07-12T15:17:18.470Z,31.84
2018-07-12T15:19:47.263Z,31.73
2018-07-12T15:22:15.976Z,31.93
2018-07-12T15:24:44.676Z,31.71
2018-07-12T15:27:13.341Z,31.54
2018-07-12T15:29:42.210Z,31.48
2018-07-12T15:32:10.906Z,32.05
2018-07-12T15:34:39.634Z,32.54
2018-07-12T15:37:08.337Z,33.01
2018-07-12T15:39:37.593Z,33.19
2018-07-12T15:42:06.406Z,33.63
2018-07-12T15:44:35.099Z,33.65
2018-07-12T15:47:03.987Z,33.74
2018-07-12T15:49:32.784Z,33.94
2018-07-12T15:54:14.856Z,33.56
2018-07-12T15:56:43.528Z,34.29
2018-07-12T15:59:12.184Z,34.52
2018-07-12T16:01:40.995Z,34.29
2018-07-12T16:04:09.743Z,33.94
2018-07-12T16:06:38.493Z,34.16
2018-07-12T16:09:09.136Z,34.31
2018-07-12T16:11:37.843Z,34.22
2018-07-12T16:14:06.602Z,34.01
2018-07-12T16:16:35.438Z,33.84
2018-07-12T16:19:04.156Z,33.42
2018-07-12T16:21:32.937Z,33.38
2018-07-12T16:24:01.768Z,33.04
2018-07-12T16:29:22.508Z,32.85
2018-07-12T16:31:52.796Z,32.85
2018-07-12T16:34:23.155Z,33.15
2018-07-12T16:36:51.856Z,33.19
2018-07-12T16:39:20.897Z,33.04
2018-07-12T16:41:50.372Z,32.75
2018-07-12T16:44:19.104Z,32.65
2018-07-12T16:46:47.848Z,32.65
2018-07-12T16:49:16.561Z,32.67
2018-07-12T16:51:45.304Z,32.52
2018-07-12T16:54:14.099Z,32.34
2018-07-12T16:56:42.847Z,32.27
2018-07-12T16:59:11.646Z,32.25
2018-07-12T17:01:40.465Z,32.00
2018-07-12T17:04:09.222Z,31.60
2018-07-12T17:06:37.970Z,31.47
2018-07-12T17:09:08.037Z,31.29
2018-07-12T17:11:36.850Z,31.03
2018-07-12T17:14:05.662Z,30.77
2018-07-12T17:16:34.332Z,30.43
2018-07-12T17:19:03.237Z,30.13
2018-07-12T17:21:32.048Z,30.00
2018-07-12T17:24:02.632Z,29.96
2018-07-12T17:26:31.338Z,29.76
2018-07-12T17:29:00.255Z,29.62
2018-07-12T17:31:29.036Z,29.57
2018-07-12T17:33:57.848Z,29.38
2018-07-12T17:36:26.648Z,29.19
2018-07-12T17:38:55.439Z,28.97
2018-07-12T17:41:24.194Z,28.81
2018-07-12T17:43:53.001Z,28.75
2018-07-12T17:46:21.887Z,28.67
2018-07-12T17:48:50.692Z,28.46
2018-07-12T17:51:19.452Z,28.29
2018-07-12T17:53:48.194Z,28.01
2018-07-12T17:56:16.947Z,27.85
2018-07-12T17:58:45.751Z,27.67
2018-07-12T18:01:14.551Z,27.46
2018-07-12T18:03:43.332Z,27.32
2018-07-12T18:06:12.220Z,27.17
2018-07-12T18:08:41.345Z,26.98
2018-07-12T18:11:10.101Z,27.06
2018-07-12T18:13:38.918Z,27.00
2018-07-12T18:16:07.660Z,26.83
2018-07-12T18:18:36.442Z,26.67
2018-07-12T18:21:05.143Z,26.53
2018-07-12T18:23:33.839Z,26.39
2018-07-12T18:26:02.620Z,26.42
2018-07-12T18:28:31.391Z,26.38
2018-07-12T18:31:00.120Z,26.44
2018-07-12T18:33:29.030Z,26.37
2018-07-12T18:35:57.865Z,26.31
2018-07-12T18:38:26.676Z,26.15
2018-07-12T18:40:55.581Z,26.11
2018-07-12T18:43:24.280Z,25.99
2018-07-12T18:45:53.044Z,25.97
2018-07-12T18:48:21.814Z,25.90
2018-07-12T18:50:50.575Z,25.72
2018-07-12T18:53:19.364Z,25.64
2018-07-12T18:55:48.139Z,25.56
2018-07-12T18:58:16.919Z,25.48
2018-07-12T19:00:45.627Z,25.46
2018-07-12T19:03:14.440Z,25.43
2018-07-12T19:05:43.215Z,25.39
2018-07-12T19:08:11.966Z,25.38
2018-07-12T19:10:40.707Z,25.36
2018-07-12T19:13:09.530Z,25.33
2018-07-12T19:15:38.320Z,25.35
2018-07-12T19:18:07.053Z,25.37
2018-07-12T19:20:35.915Z,25.40
2018-07-12T19:23:04.656Z,25.43
2018-07-12T19:25:33.442Z,25.45
2018-07-12T19:28:02.213Z,25.40
2018-07-12T19:30:30.946Z,25.39
2018-07-12T19:32:59.786Z,25.37
2018-07-12T19:35:28.571Z,25.37
2018-07-12T19:37:57.327Z,25.39
2018-07-12T19:40:26.219Z,25.35
2018-07-12T19:42:55.173Z,25.14
2018-07-12T19:45:23.898Z,25.06
2018-07-12T19:47:52.701Z,24.90
2018-07-12T19:50:21.615Z,24.79
2018-07-12T19:52:50.479Z,24.78
2018-07-12T19:55:19.374Z,24.61
2018-07-12T19:57:48.252Z,24.41
2018-07-12T20:00:17.020Z,24.43
2018-07-12T20:02:45.724Z,24.27
2018-07-12T20:05:14.483Z,24.32
2018-07-12T20:07:43.314Z,24.32
2018-07-12T20:10:12.114Z,24.25
2018-07-12T20:12:40.950Z,24.15
2018-07-12T20:15:10.582Z,24.14
2018-07-12T20:17:39.378Z,24.12
2018-07-12T20:20:08.945Z,24.06
2018-07-12T20:22:38.043Z,23.95
2018-07-12T20:25:06.751Z,23.86
2018-07-12T20:27:35.588Z,23.84
2018-07-12T20:30:05.520Z,23.81
2018-07-12T20:32:34.262Z,23.82
2018-07-12T20:35:03.200Z,23.72
2018-07-12T20:37:31.882Z,23.65
2018-07-12T20:40:00.738Z,23.65
2018-07-12T20:42:29.494Z,23.59
2018-07-12T20:44:58.323Z,23.61
2018-07-12T20:47:27.115Z,23.65
2018-07-12T20:49:55.856Z,23.60
2018-07-12T20:52:24.622Z,23.57
2018-07-12T20:54:53.376Z,23.46
2018-07-12T20:57:22.259Z,23.38
2018-07-12T20:59:50.970Z,23.38
2018-07-12T21:02:20.602Z,23.39
2018-07-12T21:04:49.559Z,23.40
2018-07-12T21:07:18.407Z,23.36
2018-07-12T21:09:47.280Z,23.26
2018-07-12T21:12:17.053Z,23.09
2018-07-12T21:14:47.789Z,23.02
2018-07-12T21:17:17.522Z,22.92
2018-07-12T21:19:46.281Z,22.88
2018-07-12T21:22:15.095Z,22.82
2018-07-12T21:24:43.795Z,22.69
2018-07-12T21:27:12.482Z,22.68
2018-07-12T21:29:41.230Z,22.76
2018-07-12T21:32:09.911Z,22.74
2018-07-12T21:34:38.747Z,22.65
2018-07-12T21:37:07.591Z,22.56
2018-07-12T21:39:36.456Z,22.41
2018-07-12T21:42:06.255Z,22.47
2018-07-12T21:44:35.532Z,22.48
2018-07-12T21:47:04.959Z,22.40
2018-07-12T21:49:33.704Z,22.36
2018-07-12T21:52:02.489Z,22.39
2018-07-12T21:54:31.239Z,22.41
2018-07-12T21:57:00.052Z,22.41
2018-07-12T21:59:28.884Z,22.34
2018-07-12T22:01:57.584Z,22.27
2018-07-12T22:04:26.353Z,22.25
2018-07-12T22:07:04.619Z,22.18
2018-07-12T22:09:33.312Z,22.16
2018-07-12T22:12:01.989Z,22.15
2018-07-12T22:14:30.710Z,22.00
2018-07-12T22:16:59.463Z,22.04
2018-07-12T22:19:28.470Z,22.13
2018-07-12T22:21:57.223Z,22.12
2018-07-12T22:24:26.907Z,22.15
2018-07-12T22:26:55.610Z,22.06
2018-07-12T22:29:24.277Z,22.14
2018-07-12T22:31:53.016Z,22.10
2018-07-12T22:34:21.728Z,22.10
2018-07-12T22:36:50.476Z,22.15
2018-07-12T22:39:19.239Z,22.21
2018-07-12T22:41:48.143Z,22.17
2018-07-12T22:44:16.855Z,22.18
2018-07-12T22:46:45.541Z,22.18
2018-07-12T22:49:14.334Z,22.15
2018-07-12T22:51:43.651Z,22.13
2018-07-12T22:54:12.392Z,22.13
2018-07-12T22:56:41.087Z,22.11
2018-07-12T22:59:09.840Z,22.11
2018-07-12T23:01:38.636Z,22.08
2018-07-12T23:04:07.394Z,22.08
2018-07-12T23:06:36.240Z,21.99
2018-07-12T23:09:05.423Z,21.99
2018-07-12T23:11:34.148Z,21.96
2018-07-12T23:14:02.923Z,21.86
2018-07-12T23:16:31.645Z,21.81
2018-07-12T23:19:00.354Z,21.75
2018-07-12T23:21:29.170Z,21.66
2018-07-12T23:23:57.889Z,21.53
2018-07-12T23:26:26.565Z,21.48
2018-07-12T23:28:55.359Z,21.32
2018-07-12T23:31:24.075Z,21.28
2018-07-12T23:33:52.817Z,21.02
2018-07-12T23:36:21.528Z,21.18
2018-07-12T23:38:50.168Z,21.09
2018-07-12T23:41:18.840Z,21.13
2018-07-12T23:43:47.609Z,21.14
2018-07-12T23:46:16.323Z,21.15
2018-07-12T23:48:45.024Z,21.13
2018-07-12T23:51:13.694Z,21.11
2018-07-12T23:53:42.395Z,21.09
2018-07-12T23:56:11.154Z,21.10
2018-07-12T23:58:39.880Z,21.11
